Portada
METAR-TAF:

METAR-TAF

Aeropuertos :

Aeropuerto de Trapani-Birgi

Trapani, Italia

latitud: 37-55N, longitud: 012-30E, altitud: 7 m

Observación

El informe se hizo hace 58 minutos, a las 01:55 UTC
Viento 3 kt del este-sureste
Temperatura 13°C
Humedad 94%
Presión 1015 hPa
Visibilidad 10 km o más
sin nubes por debajo de 1500 m y sin presencia de cumulonimbus.

METAR: LICT 010155Z 12003KT CAVOK 13/12 Q1015 RMK SKC VIS MIN 9999 WIND THR13 10003KT BLU

Hora: 04:53 (02:53 UTC)

Pronóstico

El informe se hizo hace 53 minutos, a las 02:00 UTC
Pronóstico válido del 01 a las 03 UTC al 01 a las 12 UTC
Viento 5 kt del norte-noreste
Visibilidad 10 km o más
Escasas nubes a una altura de 2500 ft
Evolucionando progresivamente
del 01 a las 08 UTC al 01 a las 10 UTC
Viento 10 kt del norte

TAF: LICT 010200Z 0103/0112 03005KT 9999 FEW025 BECMG 0108/0110 35010KT

Observaciones y pronósticos meteorológicos de más de 4000 aeropuertos (mensajes METAR y TAF).

Los puntos amarillos y rojos representan las estaciones disponibles.

Ponga el ratón en el punto deseado para ver el nombre de la estación.

Haga clic para ver las observaciones y los pronósticos meteorológicos.

Para cambiar el mapa : haga clic en los botones verdes con una cruz de color negro para hacer un zoom, en el botón verde con un guión para alejar o en las flechas verdes para mapas adyacentes.


METAR-TAF: